sensor_id;sensor_type;location;lat;lon;timestamp;P1;durP1;ratioP1;P2;durP2;ratioP2
5882;SDS011;2967;51.488;6.618;2023-07-31T00:02:29;12.57;;;5.37;;
5882;SDS011;2967;51.488;6.618;2023-07-31T00:07:32;10.90;;;4.57;;
5882;SDS011;2967;51.488;6.618;2023-07-31T00:12:37;12.20;;;5.40;;
5882;SDS011;2967;51.488;6.618;2023-07-31T00:17:40;8.20;;;5.33;;
5882;SDS011;2967;51.488;6.618;2023-07-31T00:22:43;13.13;;;5.00;;
5882;SDS011;2967;51.488;6.618;2023-07-31T00:27:47;11.80;;;5.43;;
5882;SDS011;2967;51.488;6.618;2023-07-31T00:32:49;11.40;;;6.00;;
5882;SDS011;2967;51.488;6.618;2023-07-31T00:37:52;13.23;;;6.17;;
5882;SDS011;2967;51.488;6.618;2023-07-31T00:42:56;13.07;;;5.93;;
5882;SDS011;2967;51.488;6.618;2023-07-31T00:48:01;14.47;;;6.47;;
5882;SDS011;2967;51.488;6.618;2023-07-31T00:53:04;15.53;;;6.50;;
5882;SDS011;2967;51.488;6.618;2023-07-31T00:58:09;16.90;;;5.80;;
5882;SDS011;2967;51.488;6.618;2023-07-31T01:03:12;15.20;;;6.37;;
5882;SDS011;2967;51.488;6.618;2023-07-31T01:08:18;17.43;;;6.27;;
5882;SDS011;2967;51.488;6.618;2023-07-31T01:13:30;13.80;;;5.17;;
5882;SDS011;2967;51.488;6.618;2023-07-31T01:18:33;15.50;;;6.20;;
5882;SDS011;2967;51.488;6.618;2023-07-31T01:23:41;12.57;;;5.20;;
5882;SDS011;2967;51.488;6.618;2023-07-31T01:29:00;14.60;;;5.30;;
5882;SDS011;2967;51.488;6.618;2023-07-31T01:34:06;8.73;;;4.80;;
5882;SDS011;2967;51.488;6.618;2023-07-31T01:39:14;11.50;;;5.13;;
5882;SDS011;2967;51.488;6.618;2023-07-31T01:44:19;9.83;;;4.70;;
5882;SDS011;2967;51.488;6.618;2023-07-31T01:49:21;13.53;;;5.47;;
5882;SDS011;2967;51.488;6.618;2023-07-31T01:54:25;11.77;;;5.33;;
5882;SDS011;2967;51.488;6.618;2023-07-31T01:59:29;15.10;;;5.67;;
5882;SDS011;2967;51.488;6.618;2023-07-31T02:04:31;9.67;;;5.30;;
5882;SDS011;2967;51.488;6.618;2023-07-31T02:09:37;8.53;;;4.80;;
5882;SDS011;2967;51.488;6.618;2023-07-31T02:14:41;8.40;;;5.00;;
5882;SDS011;2967;51.488;6.618;2023-07-31T02:19:44;14.23;;;5.60;;
5882;SDS011;2967;51.488;6.618;2023-07-31T02:24:47;13.53;;;5.77;;
5882;SDS011;2967;51.488;6.618;2023-07-31T02:29:51;16.57;;;6.00;;
5882;SDS011;2967;51.488;6.618;2023-07-31T02:34:55;13.07;;;5.37;;
5882;SDS011;2967;51.488;6.618;2023-07-31T02:39:59;15.43;;;5.47;;
5882;SDS011;2967;51.488;6.618;2023-07-31T02:45:05;15.20;;;5.43;;
5882;SDS011;2967;51.488;6.618;2023-07-31T02:50:08;15.60;;;5.50;;
5882;SDS011;2967;51.488;6.618;2023-07-31T02:55:12;14.30;;;5.73;;
5882;SDS011;2967;51.488;6.618;2023-07-31T03:00:16;9.10;;;5.13;;
5882;SDS011;2967;51.488;6.618;2023-07-31T03:05:19;14.93;;;5.83;;
5882;SDS011;2967;51.488;6.618;2023-07-31T03:10:22;17.50;;;6.57;;
5882;SDS011;2967;51.488;6.618;2023-07-31T03:15:26;15.27;;;5.63;;
5882;SDS011;2967;51.488;6.618;2023-07-31T03:20:29;16.83;;;5.70;;
5882;SDS011;2967;51.488;6.618;2023-07-31T03:25:32;10.30;;;5.13;;
5882;SDS011;2967;51.488;6.618;2023-07-31T03:30:36;19.30;;;5.97;;
5882;SDS011;2967;51.488;6.618;2023-07-31T03:35:39;14.10;;;5.83;;
5882;SDS011;2967;51.488;6.618;2023-07-31T03:40:42;13.67;;;5.57;;
5882;SDS011;2967;51.488;6.618;2023-07-31T03:45:46;19.77;;;7.30;;
5882;SDS011;2967;51.488;6.618;2023-07-31T03:50:49;20.03;;;6.60;;
5882;SDS011;2967;51.488;6.618;2023-07-31T03:55:52;13.40;;;4.83;;
5882;SDS011;2967;51.488;6.618;2023-07-31T04:00:56;13.17;;;4.90;;
5882;SDS011;2967;51.488;6.618;2023-07-31T04:05:59;8.27;;;4.90;;
5882;SDS011;2967;51.488;6.618;2023-07-31T04:11:02;10.47;;;5.43;;
5882;SDS011;2967;51.488;6.618;2023-07-31T04:16:06;12.60;;;5.20;;
5882;SDS011;2967;51.488;6.618;2023-07-31T04:21:08;13.30;;;4.83;;
5882;SDS011;2967;51.488;6.618;2023-07-31T04:26:11;10.60;;;4.70;;
5882;SDS011;2967;51.488;6.618;2023-07-31T04:31:15;12.30;;;4.80;;
5882;SDS011;2967;51.488;6.618;2023-07-31T04:36:18;8.80;;;5.03;;
5882;SDS011;2967;51.488;6.618;2023-07-31T04:41:21;8.63;;;5.20;;
5882;SDS011;2967;51.488;6.618;2023-07-31T04:46:25;12.00;;;5.40;;
5882;SDS011;2967;51.488;6.618;2023-07-31T04:51:28;14.90;;;5.63;;
5882;SDS011;2967;51.488;6.618;2023-07-31T04:56:31;17.07;;;6.30;;
5882;SDS011;2967;51.488;6.618;2023-07-31T05:01:35;16.87;;;5.57;;
5882;SDS011;2967;51.488;6.618;2023-07-31T05:06:38;14.20;;;5.17;;
5882;SDS011;2967;51.488;6.618;2023-07-31T05:11:41;11.60;;;5.33;;
5882;SDS011;2967;51.488;6.618;2023-07-31T05:16:45;9.13;;;5.10;;
5882;SDS011;2967;51.488;6.618;2023-07-31T05:21:48;12.03;;;5.10;;
5882;SDS011;2967;51.488;6.618;2023-07-31T05:26:51;15.00;;;5.30;;
5882;SDS011;2967;51.488;6.618;2023-07-31T05:31:55;20.30;;;5.90;;
5882;SDS011;2967;51.488;6.618;2023-07-31T05:36:58;10.10;;;5.80;;
5882;SDS011;2967;51.488;6.618;2023-07-31T05:42:01;11.70;;;5.43;;
5882;SDS011;2967;51.488;6.618;2023-07-31T05:47:07;12.40;;;6.23;;
5882;SDS011;2967;51.488;6.618;2023-07-31T05:52:10;14.83;;;6.07;;
5882;SDS011;2967;51.488;6.618;2023-07-31T05:57:13;11.20;;;6.67;;
5882;SDS011;2967;51.488;6.618;2023-07-31T06:02:17;18.73;;;11.53;;
5882;SDS011;2967;51.488;6.618;2023-07-31T06:07:20;11.90;;;6.90;;
5882;SDS011;2967;51.488;6.618;2023-07-31T06:12:23;21.57;;;9.77;;
5882;SDS011;2967;51.488;6.618;2023-07-31T06:17:27;11.57;;;6.10;;
5882;SDS011;2967;51.488;6.618;2023-07-31T06:22:31;10.97;;;6.33;;
5882;SDS011;2967;51.488;6.618;2023-07-31T06:27:34;10.70;;;5.70;;
5882;SDS011;2967;51.488;6.618;2023-07-31T06:32:38;9.80;;;5.97;;
5882;SDS011;2967;51.488;6.618;2023-07-31T06:37:41;10.33;;;5.40;;
5882;SDS011;2967;51.488;6.618;2023-07-31T06:42:47;11.20;;;5.60;;
5882;SDS011;2967;51.488;6.618;2023-07-31T06:47:51;7.67;;;5.40;;
5882;SDS011;2967;51.488;6.618;2023-07-31T06:52:55;8.00;;;5.43;;
5882;SDS011;2967;51.488;6.618;2023-07-31T06:57:58;12.37;;;6.17;;
5882;SDS011;2967;51.488;6.618;2023-07-31T07:03:04;8.90;;;4.70;;
5882;SDS011;2967;51.488;6.618;2023-07-31T07:08:07;7.47;;;4.93;;
5882;SDS011;2967;51.488;6.618;2023-07-31T07:13:10;5.20;;;4.67;;
5882;SDS011;2967;51.488;6.618;2023-07-31T07:18:15;7.93;;;5.33;;
5882;SDS011;2967;51.488;6.618;2023-07-31T07:23:18;13.57;;;5.80;;
5882;SDS011;2967;51.488;6.618;2023-07-31T07:28:21;7.10;;;5.47;;
5882;SDS011;2967;51.488;6.618;2023-07-31T07:33:25;6.73;;;4.83;;
5882;SDS011;2967;51.488;6.618;2023-07-31T07:38:29;7.07;;;5.20;;
5882;SDS011;2967;51.488;6.618;2023-07-31T07:43:32;7.80;;;4.70;;
5882;SDS011;2967;51.488;6.618;2023-07-31T07:48:36;5.43;;;3.73;;
5882;SDS011;2967;51.488;6.618;2023-07-31T07:53:39;5.50;;;3.93;;
5882;SDS011;2967;51.488;6.618;2023-07-31T07:58:42;4.87;;;3.77;;
5882;SDS011;2967;51.488;6.618;2023-07-31T08:03:47;5.17;;;3.83;;
5882;SDS011;2967;51.488;6.618;2023-07-31T08:08:50;6.57;;;3.47;;
5882;SDS011;2967;51.488;6.618;2023-07-31T08:13:52;4.33;;;3.30;;
5882;SDS011;2967;51.488;6.618;2023-07-31T08:18:56;5.97;;;3.63;;
5882;SDS011;2967;51.488;6.618;2023-07-31T08:23:59;3.90;;;3.20;;
5882;SDS011;2967;51.488;6.618;2023-07-31T08:29:02;7.13;;;4.00;;
5882;SDS011;2967;51.488;6.618;2023-07-31T08:34:06;6.33;;;4.27;;
5882;SDS011;2967;51.488;6.618;2023-07-31T08:39:09;6.50;;;3.63;;
5882;SDS011;2967;51.488;6.618;2023-07-31T08:44:12;3.73;;;3.43;;
5882;SDS011;2967;51.488;6.618;2023-07-31T08:49:21;7.87;;;4.20;;
5882;SDS011;2967;51.488;6.618;2023-07-31T08:54:25;7.20;;;3.73;;
5882;SDS011;2967;51.488;6.618;2023-07-31T08:59:42;8.37;;;3.37;;
5882;SDS011;2967;51.488;6.618;2023-07-31T09:04:59;7.47;;;4.13;;
5882;SDS011;2967;51.488;6.618;2023-07-31T09:10:03;5.47;;;3.90;;
5882;SDS011;2967;51.488;6.618;2023-07-31T09:15:08;5.73;;;4.37;;
5882;SDS011;2967;51.488;6.618;2023-07-31T09:20:31;7.47;;;4.00;;
5882;SDS011;2967;51.488;6.618;2023-07-31T09:25:36;6.77;;;3.67;;
5882;SDS011;2967;51.488;6.618;2023-07-31T09:36:40;6.97;;;4.00;;
5882;SDS011;2967;51.488;6.618;2023-07-31T09:41:45;7.53;;;3.70;;
5882;SDS011;2967;51.488;6.618;2023-07-31T09:46:49;4.60;;;3.30;;
5882;SDS011;2967;51.488;6.618;2023-07-31T09:51:54;4.80;;;3.00;;
5882;SDS011;2967;51.488;6.618;2023-07-31T09:56:57;6.30;;;3.33;;
5882;SDS011;2967;51.488;6.618;2023-07-31T10:02:30;6.43;;;3.57;;
5882;SDS011;2967;51.488;6.618;2023-07-31T10:08:09;10.57;;;3.77;;
5882;SDS011;2967;51.488;6.618;2023-07-31T10:13:14;5.87;;;4.00;;
5882;SDS011;2967;51.488;6.618;2023-07-31T10:18:20;8.97;;;4.50;;
5882;SDS011;2967;51.488;6.618;2023-07-31T10:23:25;8.50;;;4.40;;
5882;SDS011;2967;51.488;6.618;2023-07-31T10:28:36;9.93;;;4.00;;
5882;SDS011;2967;51.488;6.618;2023-07-31T10:33:45;6.23;;;4.37;;
5882;SDS011;2967;51.488;6.618;2023-07-31T10:38:55;6.00;;;4.13;;
5882;SDS011;2967;51.488;6.618;2023-07-31T10:44:06;9.50;;;4.00;;
5882;SDS011;2967;51.488;6.618;2023-07-31T10:49:12;6.13;;;3.90;;
5882;SDS011;2967;51.488;6.618;2023-07-31T10:54:25;8.70;;;4.10;;
5882;SDS011;2967;51.488;6.618;2023-07-31T10:59:32;6.07;;;3.73;;
5882;SDS011;2967;51.488;6.618;2023-07-31T11:04:37;3.33;;;3.03;;
5882;SDS011;2967;51.488;6.618;2023-07-31T11:09:45;4.87;;;2.90;;
5882;SDS011;2967;51.488;6.618;2023-07-31T11:14:53;4.50;;;3.87;;
5882;SDS011;2967;51.488;6.618;2023-07-31T11:20:06;4.13;;;2.90;;
5882;SDS011;2967;51.488;6.618;2023-07-31T11:25:11;3.80;;;3.10;;
5882;SDS011;2967;51.488;6.618;2023-07-31T11:30:13;7.20;;;4.30;;
5882;SDS011;2967;51.488;6.618;2023-07-31T11:35:16;5.50;;;2.90;;
5882;SDS011;2967;51.488;6.618;2023-07-31T11:40:20;6.20;;;3.60;;
5882;SDS011;2967;51.488;6.618;2023-07-31T11:45:30;5.70;;;2.83;;
5882;SDS011;2967;51.488;6.618;2023-07-31T11:50:39;6.40;;;3.33;;
5882;SDS011;2967;51.488;6.618;2023-07-31T11:55:43;4.50;;;3.50;;
5882;SDS011;2967;51.488;6.618;2023-07-31T12:00:47;5.70;;;3.90;;
5882;SDS011;2967;51.488;6.618;2023-07-31T12:05:50;9.60;;;5.40;;
5882;SDS011;2967;51.488;6.618;2023-07-31T12:16:27;4.07;;;3.63;;
5882;SDS011;2967;51.488;6.618;2023-07-31T12:21:37;4.37;;;3.07;;
5882;SDS011;2967;51.488;6.618;2023-07-31T12:26:54;4.40;;;3.73;;
5882;SDS011;2967;51.488;6.618;2023-07-31T12:32:00;5.30;;;4.00;;
5882;SDS011;2967;51.488;6.618;2023-07-31T12:37:13;3.93;;;3.63;;
5882;SDS011;2967;51.488;6.618;2023-07-31T12:42:30;5.80;;;4.17;;
5882;SDS011;2967;51.488;6.618;2023-07-31T12:47:33;4.60;;;3.60;;
5882;SDS011;2967;51.488;6.618;2023-07-31T12:52:36;3.83;;;3.47;;
5882;SDS011;2967;51.488;6.618;2023-07-31T12:57:53;8.93;;;3.50;;
5882;SDS011;2967;51.488;6.618;2023-07-31T13:02:58;6.17;;;3.90;;
5882;SDS011;2967;51.488;6.618;2023-07-31T13:08:02;5.30;;;3.67;;
5882;SDS011;2967;51.488;6.618;2023-07-31T13:13:12;6.33;;;3.70;;
5882;SDS011;2967;51.488;6.618;2023-07-31T13:18:15;7.03;;;6.10;;
5882;SDS011;2967;51.488;6.618;2023-07-31T13:23:18;5.83;;;4.20;;
5882;SDS011;2967;51.488;6.618;2023-07-31T13:28:22;7.50;;;4.17;;
5882;SDS011;2967;51.488;6.618;2023-07-31T13:33:25;8.27;;;4.03;;
5882;SDS011;2967;51.488;6.618;2023-07-31T13:38:41;8.70;;;3.90;;
5882;SDS011;2967;51.488;6.618;2023-07-31T13:43:48;5.03;;;4.30;;
5882;SDS011;2967;51.488;6.618;2023-07-31T13:48:51;5.90;;;3.83;;
5882;SDS011;2967;51.488;6.618;2023-07-31T13:53:57;8.33;;;4.07;;
5882;SDS011;2967;51.488;6.618;2023-07-31T13:59:01;6.03;;;4.40;;
5882;SDS011;2967;51.488;6.618;2023-07-31T14:04:04;5.77;;;4.10;;
5882;SDS011;2967;51.488;6.618;2023-07-31T14:09:08;6.30;;;4.80;;
5882;SDS011;2967;51.488;6.618;2023-07-31T14:14:15;5.10;;;4.60;;
5882;SDS011;2967;51.488;6.618;2023-07-31T14:19:25;7.83;;;4.50;;
5882;SDS011;2967;51.488;6.618;2023-07-31T14:24:31;5.33;;;3.83;;
5882;SDS011;2967;51.488;6.618;2023-07-31T14:29:37;11.33;;;6.80;;
5882;SDS011;2967;51.488;6.618;2023-07-31T14:34:44;8.80;;;5.40;;
5882;SDS011;2967;51.488;6.618;2023-07-31T14:39:50;10.13;;;4.83;;
5882;SDS011;2967;51.488;6.618;2023-07-31T14:44:54;8.90;;;5.00;;
5882;SDS011;2967;51.488;6.618;2023-07-31T14:49:57;8.27;;;5.03;;
5882;SDS011;2967;51.488;6.618;2023-07-31T14:55:00;8.63;;;4.70;;
5882;SDS011;2967;51.488;6.618;2023-07-31T15:00:05;10.90;;;5.80;;
5882;SDS011;2967;51.488;6.618;2023-07-31T15:05:10;9.27;;;4.57;;
5882;SDS011;2967;51.488;6.618;2023-07-31T15:10:13;6.90;;;4.50;;
5882;SDS011;2967;51.488;6.618;2023-07-31T15:15:17;5.97;;;4.33;;
5882;SDS011;2967;51.488;6.618;2023-07-31T15:20:22;8.80;;;4.93;;
5882;SDS011;2967;51.488;6.618;2023-07-31T15:25:25;7.93;;;4.50;;
5882;SDS011;2967;51.488;6.618;2023-07-31T15:30:31;6.13;;;4.70;;
5882;SDS011;2967;51.488;6.618;2023-07-31T15:35:36;7.93;;;4.83;;
5882;SDS011;2967;51.488;6.618;2023-07-31T15:40:39;13.63;;;9.80;;
5882;SDS011;2967;51.488;6.618;2023-07-31T15:45:43;6.53;;;5.10;;
5882;SDS011;2967;51.488;6.618;2023-07-31T15:50:46;8.97;;;5.10;;
5882;SDS011;2967;51.488;6.618;2023-07-31T15:55:49;8.20;;;5.57;;
5882;SDS011;2967;51.488;6.618;2023-07-31T16:00:53;8.70;;;5.13;;
5882;SDS011;2967;51.488;6.618;2023-07-31T16:05:59;8.63;;;6.10;;
5882;SDS011;2967;51.488;6.618;2023-07-31T16:11:02;7.27;;;5.80;;
5882;SDS011;2967;51.488;6.618;2023-07-31T16:16:06;9.93;;;5.63;;
5882;SDS011;2967;51.488;6.618;2023-07-31T16:21:14;10.90;;;5.90;;
5882;SDS011;2967;51.488;6.618;2023-07-31T16:26:16;18.80;;;5.80;;
5882;SDS011;2967;51.488;6.618;2023-07-31T16:31:21;11.13;;;7.70;;
5882;SDS011;2967;51.488;6.618;2023-07-31T16:36:27;6.13;;;5.47;;
5882;SDS011;2967;51.488;6.618;2023-07-31T16:41:30;10.13;;;5.30;;
5882;SDS011;2967;51.488;6.618;2023-07-31T16:46:35;5.77;;;4.87;;
5882;SDS011;2967;51.488;6.618;2023-07-31T16:51:47;10.63;;;6.77;;
5882;SDS011;2967;51.488;6.618;2023-07-31T16:56:50;7.23;;;4.37;;
5882;SDS011;2967;51.488;6.618;2023-07-31T17:02:03;4.77;;;4.20;;
5882;SDS011;2967;51.488;6.618;2023-07-31T17:07:07;3.87;;;3.47;;
5882;SDS011;2967;51.488;6.618;2023-07-31T17:12:09;3.40;;;3.10;;
5882;SDS011;2967;51.488;6.618;2023-07-31T17:17:28;10.00;;;9.00;;
5882;SDS011;2967;51.488;6.618;2023-07-31T17:22:50;5.17;;;3.43;;
5882;SDS011;2967;51.488;6.618;2023-07-31T17:28:04;3.57;;;3.27;;
5882;SDS011;2967;51.488;6.618;2023-07-31T17:33:11;5.80;;;3.83;;
5882;SDS011;2967;51.488;6.618;2023-07-31T17:38:17;7.90;;;6.43;;
5882;SDS011;2967;51.488;6.618;2023-07-31T17:43:27;5.40;;;3.30;;
5882;SDS011;2967;51.488;6.618;2023-07-31T17:48:41;4.17;;;3.30;;
5882;SDS011;2967;51.488;6.618;2023-07-31T17:53:44;3.80;;;3.23;;
5882;SDS011;2967;51.488;6.618;2023-07-31T17:58:53;2.83;;;2.63;;
5882;SDS011;2967;51.488;6.618;2023-07-31T18:04:00;3.33;;;2.60;;
5882;SDS011;2967;51.488;6.618;2023-07-31T18:09:08;5.40;;;3.20;;
5882;SDS011;2967;51.488;6.618;2023-07-31T18:14:11;2.90;;;2.50;;
5882;SDS011;2967;51.488;6.618;2023-07-31T18:30:56;3.10;;;2.63;;
5882;SDS011;2967;51.488;6.618;2023-07-31T18:55:14;4.60;;;2.57;;
5882;SDS011;2967;51.488;6.618;2023-07-31T19:00:17;3.97;;;2.40;;
5882;SDS011;2967;51.488;6.618;2023-07-31T19:05:20;2.30;;;2.10;;
5882;SDS011;2967;51.488;6.618;2023-07-31T19:10:24;3.13;;;1.90;;
5882;SDS011;2967;51.488;6.618;2023-07-31T19:15:26;7.67;;;5.83;;
5882;SDS011;2967;51.488;6.618;2023-07-31T19:20:29;8.10;;;6.43;;
5882;SDS011;2967;51.488;6.618;2023-07-31T19:25:41;2.67;;;2.10;;
5882;SDS011;2967;51.488;6.618;2023-07-31T19:30:45;2.43;;;1.90;;
5882;SDS011;2967;51.488;6.618;2023-07-31T19:35:52;6.20;;;2.23;;
5882;SDS011;2967;51.488;6.618;2023-07-31T19:40:59;2.50;;;1.70;;
5882;SDS011;2967;51.488;6.618;2023-07-31T19:46:03;1.63;;;1.53;;
5882;SDS011;2967;51.488;6.618;2023-07-31T19:51:05;1.60;;;1.50;;
5882;SDS011;2967;51.488;6.618;2023-07-31T19:56:09;1.80;;;1.70;;
5882;SDS011;2967;51.488;6.618;2023-07-31T20:01:12;1.97;;;1.87;;
5882;SDS011;2967;51.488;6.618;2023-07-31T20:06:15;2.20;;;2.00;;
5882;SDS011;2967;51.488;6.618;2023-07-31T20:11:19;1.83;;;1.73;;
5882;SDS011;2967;51.488;6.618;2023-07-31T20:16:22;2.03;;;1.93;;
5882;SDS011;2967;51.488;6.618;2023-07-31T20:21:24;2.00;;;1.80;;
5882;SDS011;2967;51.488;6.618;2023-07-31T20:26:28;2.80;;;1.60;;
5882;SDS011;2967;51.488;6.618;2023-07-31T20:31:31;32.67;;;27.37;;
5882;SDS011;2967;51.488;6.618;2023-07-31T20:36:34;2.07;;;1.97;;
5882;SDS011;2967;51.488;6.618;2023-07-31T20:41:39;2.73;;;2.47;;
5882;SDS011;2967;51.488;6.618;2023-07-31T20:46:41;2.63;;;2.20;;
5882;SDS011;2967;51.488;6.618;2023-07-31T20:51:44;2.30;;;2.10;;
5882;SDS011;2967;51.488;6.618;2023-07-31T20:56:49;1.80;;;1.70;;
5882;SDS011;2967;51.488;6.618;2023-07-31T21:01:53;4.77;;;2.47;;
5882;SDS011;2967;51.488;6.618;2023-07-31T21:06:57;1.80;;;1.70;;
5882;SDS011;2967;51.488;6.618;2023-07-31T21:12:01;10.33;;;7.10;;
5882;SDS011;2967;51.488;6.618;2023-07-31T21:17:04;3.13;;;2.83;;
5882;SDS011;2967;51.488;6.618;2023-07-31T21:22:07;2.30;;;2.10;;
5882;SDS011;2967;51.488;6.618;2023-07-31T21:27:11;2.03;;;1.60;;
5882;SDS011;2967;51.488;6.618;2023-07-31T21:32:13;4.00;;;2.23;;
5882;SDS011;2967;51.488;6.618;2023-07-31T21:37:16;1.60;;;1.50;;
5882;SDS011;2967;51.488;6.618;2023-07-31T21:42:20;5.83;;;1.80;;
5882;SDS011;2967;51.488;6.618;2023-07-31T21:47:23;3.93;;;3.03;;
5882;SDS011;2967;51.488;6.618;2023-07-31T21:52:26;7.87;;;7.10;;
5882;SDS011;2967;51.488;6.618;2023-07-31T21:57:30;1.77;;;1.67;;
5882;SDS011;2967;51.488;6.618;2023-07-31T22:02:32;1.47;;;1.37;;
5882;SDS011;2967;51.488;6.618;2023-07-31T22:07:36;1.83;;;1.60;;
5882;SDS011;2967;51.488;6.618;2023-07-31T22:12:40;2.23;;;1.87;;
5882;SDS011;2967;51.488;6.618;2023-07-31T22:17:43;3.13;;;1.63;;
5882;SDS011;2967;51.488;6.618;2023-07-31T22:22:46;4.23;;;2.00;;
5882;SDS011;2967;51.488;6.618;2023-07-31T22:27:50;3.43;;;2.60;;
5882;SDS011;2967;51.488;6.618;2023-07-31T22:32:53;2.43;;;2.00;;
5882;SDS011;2967;51.488;6.618;2023-07-31T22:37:56;2.10;;;1.87;;
5882;SDS011;2967;51.488;6.618;2023-07-31T22:43:01;1.97;;;1.77;;
5882;SDS011;2967;51.488;6.618;2023-07-31T22:48:04;3.77;;;1.90;;
5882;SDS011;2967;51.488;6.618;2023-07-31T22:53:06;4.60;;;2.27;;
5882;SDS011;2967;51.488;6.618;2023-07-31T22:58:10;2.00;;;1.80;;
5882;SDS011;2967;51.488;6.618;2023-07-31T23:03:13;3.37;;;2.50;;
5882;SDS011;2967;51.488;6.618;2023-07-31T23:08:16;3.27;;;1.70;;
5882;SDS011;2967;51.488;6.618;2023-07-31T23:13:20;1.70;;;1.60;;
5882;SDS011;2967;51.488;6.618;2023-07-31T23:18:24;1.70;;;1.50;;
5882;SDS011;2967;51.488;6.618;2023-07-31T23:23:26;2.20;;;1.77;;
5882;SDS011;2967;51.488;6.618;2023-07-31T23:28:30;1.40;;;1.30;;
5882;SDS011;2967;51.488;6.618;2023-07-31T23:33:33;1.67;;;1.43;;
5882;SDS011;2967;51.488;6.618;2023-07-31T23:38:36;1.10;;;1.10;;
5882;SDS011;2967;51.488;6.618;2023-07-31T23:43:40;1.20;;;1.10;;
5882;SDS011;2967;51.488;6.618;2023-07-31T23:48:46;1.40;;;1.10;;
5882;SDS011;2967;51.488;6.618;2023-07-31T23:53:50;1.87;;;1.07;;
5882;SDS011;2967;51.488;6.618;2023-07-31T23:58:54;1.43;;;1.33;;
